createdAt,value
2022-08-17T00:02:25.359Z,23.83
2022-08-17T00:04:56.216Z,23.78
2022-08-17T00:07:24.244Z,23.76
2022-08-17T00:09:52.818Z,23.71
2022-08-17T00:12:43.210Z,23.66
2022-08-17T00:15:08.278Z,23.65
2022-08-17T00:17:37.929Z,23.67
2022-08-17T00:20:04.868Z,23.66
2022-08-17T00:22:36.071Z,23.64
2022-08-17T00:25:15.147Z,23.64
2022-08-17T00:27:41.927Z,23.59
2022-08-17T00:30:11.606Z,23.58
2022-08-17T00:33:13.958Z,23.58
2022-08-17T00:35:35.594Z,23.55
2022-08-17T00:38:04.081Z,23.53
2022-08-17T00:40:40.685Z,23.52
2022-08-17T00:43:22.169Z,23.53
2022-08-17T00:45:49.548Z,23.51
2022-08-17T00:48:29.945Z,23.48
2022-08-17T00:51:04.764Z,23.47
2022-08-17T00:53:33.882Z,23.44
2022-08-17T00:56:03.039Z,23.43
2022-08-17T00:58:36.340Z,23.42
2022-08-17T01:01:07.467Z,23.44
2022-08-17T01:03:37.340Z,23.45
2022-08-17T01:06:06.611Z,23.43
2022-08-17T01:08:33.374Z,23.45
2022-08-17T01:11:02.415Z,23.42
2022-08-17T01:13:40.385Z,23.40
2022-08-17T01:16:17.824Z,23.37
2022-08-17T01:18:47.860Z,23.35
2022-08-17T01:21:39.267Z,23.33
2022-08-17T01:24:06.206Z,23.33
2022-08-17T01:26:34.436Z,23.32
2022-08-17T01:29:02.863Z,23.30
2022-08-17T01:31:34.806Z,23.24
2022-08-17T01:34:07.307Z,23.21
2022-08-17T01:36:33.797Z,23.24
2022-08-17T01:39:00.660Z,23.22
2022-08-17T01:41:28.185Z,23.20
2022-08-17T01:44:00.071Z,23.22
2022-08-17T01:46:33.331Z,23.24
2022-08-17T01:49:00.710Z,23.22
2022-08-17T01:51:32.535Z,23.23
2022-08-17T01:54:05.186Z,23.22
2022-08-17T01:56:33.867Z,23.22
2022-08-17T01:59:00.595Z,23.13
2022-08-17T02:01:31.115Z,23.21
2022-08-17T02:04:00.565Z,23.21
2022-08-17T02:06:31.401Z,23.17
2022-08-17T02:09:16.483Z,23.10
2022-08-17T02:11:45.315Z,23.02
2022-08-17T02:14:13.100Z,23.00
2022-08-17T02:16:40.961Z,22.96
2022-08-17T02:19:11.353Z,22.89
2022-08-17T02:21:39.105Z,22.83
2022-08-17T02:24:09.684Z,22.77
2022-08-17T02:26:39.466Z,22.71
2022-08-17T02:29:05.978Z,22.58
2022-08-17T02:31:32.807Z,22.48
2022-08-17T02:34:03.952Z,22.45
2022-08-17T02:36:34.071Z,22.47
2022-08-17T02:39:15.529Z,22.48
2022-08-17T02:41:41.939Z,22.49
2022-08-17T02:44:08.795Z,22.52
2022-08-17T02:46:39.290Z,22.53
2022-08-17T02:49:07.115Z,22.49
2022-08-17T02:51:35.178Z,22.43
2022-08-17T02:54:39.086Z,22.29
2022-08-17T02:56:48.356Z,22.20
2022-08-17T02:59:15.019Z,22.20
2022-08-17T03:01:42.104Z,22.21
2022-08-17T03:04:09.292Z,22.23
2022-08-17T03:06:35.830Z,22.19
2022-08-17T03:09:02.326Z,22.16
2022-08-17T03:11:28.721Z,22.13
2022-08-17T03:13:55.692Z,22.12
2022-08-17T03:16:22.060Z,22.15
2022-08-17T03:18:48.525Z,22.14
2022-08-17T03:21:14.903Z,22.16
2022-08-17T03:23:44.292Z,22.14
2022-08-17T03:26:12.383Z,22.13
2022-08-17T03:28:41.879Z,22.12
2022-08-17T03:31:08.513Z,22.04
2022-08-17T03:33:34.962Z,21.90
2022-08-17T03:36:01.553Z,21.97
2022-08-17T03:38:28.139Z,22.02
2022-08-17T03:40:56.290Z,22.03
2022-08-17T03:43:25.236Z,22.04
2022-08-17T03:46:10.824Z,22.05
2022-08-17T03:49:12.891Z,22.04
2022-08-17T03:52:02.750Z,21.98
2022-08-17T03:54:47.495Z,21.98
2022-08-17T03:57:14.266Z,21.93
2022-08-17T03:59:41.220Z,21.88
2022-08-17T04:02:11.436Z,21.83
2022-08-17T04:04:46.335Z,21.80
2022-08-17T04:07:12.767Z,21.74
2022-08-17T04:09:39.222Z,21.69
2022-08-17T04:12:10.256Z,21.64
2022-08-17T04:14:51.499Z,21.60
2022-08-17T04:17:46.919Z,21.58
2022-08-17T04:20:15.655Z,21.59
2022-08-17T04:23:09.407Z,21.62
2022-08-17T04:25:39.402Z,21.55
2022-08-17T04:28:09.445Z,21.54
2022-08-17T04:30:44.987Z,21.57
2022-08-17T04:33:20.891Z,21.57
2022-08-17T04:35:50.063Z,21.51
2022-08-17T04:38:18.871Z,21.54
2022-08-17T04:41:04.420Z,21.56
2022-08-17T04:43:33.108Z,21.58
2022-08-17T04:46:06.430Z,21.60
2022-08-17T04:48:37.644Z,21.60
2022-08-17T04:51:07.746Z,21.61
2022-08-17T04:53:34.354Z,21.65
2022-08-17T04:56:01.067Z,21.70
2022-08-17T05:00:55.297Z,21.72
2022-08-17T05:03:21.757Z,21.74
2022-08-17T05:05:51.299Z,21.74
2022-08-17T05:08:19.438Z,21.77
2022-08-17T05:10:46.872Z,21.75
2022-08-17T05:13:19.729Z,21.76
2022-08-17T05:15:48.166Z,21.68
2022-08-17T05:18:18.192Z,21.60
2022-08-17T05:20:45.076Z,21.60
2022-08-17T05:23:14.969Z,21.54
2022-08-17T05:25:47.578Z,21.52
2022-08-17T05:28:16.177Z,21.44
2022-08-17T05:30:44.122Z,21.47
2022-08-17T05:33:16.534Z,21.50
2022-08-17T05:35:49.045Z,21.42
2022-08-17T05:38:18.908Z,21.51
2022-08-17T05:40:47.007Z,21.52
2022-08-17T05:43:17.290Z,21.50
2022-08-17T05:45:56.479Z,21.49
2022-08-17T05:48:35.281Z,21.50
2022-08-17T05:51:11.597Z,21.55
2022-08-17T05:53:57.838Z,21.60
2022-08-17T05:56:42.391Z,21.65
2022-08-17T05:59:35.751Z,21.72
2022-08-17T06:02:06.391Z,21.74
2022-08-17T06:05:03.747Z,21.79
2022-08-17T06:07:52.733Z,21.84
2022-08-17T06:10:43.948Z,21.88
2022-08-17T06:13:33.041Z,21.96
2022-08-17T06:16:33.891Z,21.98
2022-08-17T06:19:22.975Z,22.06
2022-08-17T06:21:53.915Z,22.10
2022-08-17T06:24:38.347Z,22.14
2022-08-17T06:27:11.998Z,22.19
2022-08-17T06:30:12.712Z,22.22
2022-08-17T06:32:43.193Z,22.22
2022-08-17T06:35:14.726Z,22.19
2022-08-17T06:37:41.027Z,22.17
2022-08-17T06:40:37.536Z,22.13
2022-08-17T06:43:26.528Z,22.16
2022-08-17T06:46:08.314Z,22.20
2022-08-17T06:48:43.835Z,22.29
2022-08-17T06:51:20.970Z,22.36
2022-08-17T06:54:16.397Z,22.50
2022-08-17T06:56:56.109Z,22.59
2022-08-17T06:59:55.373Z,22.68
2022-08-17T07:03:02.682Z,22.76
2022-08-17T07:06:02.250Z,22.83
2022-08-17T07:08:51.211Z,22.88
2022-08-17T07:11:25.889Z,22.90
2022-08-17T07:14:18.899Z,22.88
2022-08-17T07:16:52.248Z,22.89
2022-08-17T07:19:23.338Z,22.94
2022-08-17T07:22:27.944Z,22.97
2022-08-17T07:25:04.370Z,22.95
2022-08-17T07:27:37.034Z,22.95
2022-08-17T07:30:10.910Z,22.91
2022-08-17T07:33:00.611Z,22.91
2022-08-17T07:35:37.863Z,22.90
2022-08-17T07:38:25.349Z,22.92
2022-08-17T07:41:02.498Z,22.93
2022-08-17T07:43:39.163Z,22.92
2022-08-17T07:46:39.527Z,22.94
2022-08-17T07:49:08.598Z,22.96
2022-08-17T07:51:37.237Z,22.98
2022-08-17T07:54:15.623Z,22.96
2022-08-17T07:56:47.088Z,22.94
2022-08-17T07:59:24.061Z,22.95
2022-08-17T08:01:57.529Z,22.95
2022-08-17T08:05:00.210Z,22.89
2022-08-17T08:07:20.789Z,22.85
2022-08-17T08:09:59.958Z,22.85
2022-08-17T08:12:34.979Z,22.87
2022-08-17T08:15:09.388Z,22.89
2022-08-17T08:17:47.441Z,22.88
2022-08-17T08:20:52.496Z,22.88
2022-08-17T08:23:15.426Z,22.86
2022-08-17T08:26:03.126Z,22.85
2022-08-17T08:28:35.694Z,22.83
2022-08-17T08:31:24.383Z,22.85
2022-08-17T08:34:09.074Z,22.85
2022-08-17T08:37:24.999Z,22.91
2022-08-17T08:40:18.986Z,22.88
2022-08-17T08:43:05.854Z,22.89
2022-08-17T08:45:50.929Z,22.94
2022-08-17T08:48:53.899Z,23.00
2022-08-17T08:51:46.101Z,23.01
2022-08-17T08:54:31.334Z,23.06
2022-08-17T09:00:22.502Z,23.21
2022-08-17T09:03:08.395Z,23.31
2022-08-17T09:05:56.153Z,23.30
2022-08-17T09:08:23.259Z,23.31
2022-08-17T09:11:13.471Z,23.31
2022-08-17T09:14:21.281Z,23.34
2022-08-17T09:17:07.824Z,23.39
2022-08-17T09:19:42.033Z,23.40
2022-08-17T09:22:38.429Z,23.42
2022-08-17T09:25:16.591Z,23.41
2022-08-17T09:27:50.587Z,23.45
2022-08-17T09:30:18.486Z,23.46
2022-08-17T09:32:56.107Z,23.45
2022-08-17T09:35:39.450Z,23.39
2022-08-17T09:38:22.424Z,23.38
2022-08-17T09:41:01.600Z,23.35
2022-08-17T09:43:39.027Z,23.25
2022-08-17T09:46:15.896Z,23.11
2022-08-17T09:48:51.600Z,22.96
2022-08-17T09:51:20.663Z,22.88
2022-08-17T09:53:47.291Z,22.82
2022-08-17T09:56:46.974Z,22.69
2022-08-17T09:59:17.119Z,22.61
2022-08-17T10:01:51.608Z,22.50
2022-08-17T10:04:41.348Z,22.44
2022-08-17T10:07:10.783Z,22.42
2022-08-17T10:09:48.648Z,22.41
2022-08-17T10:12:30.874Z,22.35
2022-08-17T10:15:18.964Z,22.26
2022-08-17T10:18:01.125Z,22.14
2022-08-17T10:20:45.658Z,22.15
2022-08-17T10:23:45.013Z,22.21
2022-08-17T10:26:16.822Z,22.29
2022-08-17T10:28:52.675Z,22.35
2022-08-17T10:31:38.778Z,22.46
2022-08-17T10:34:12.375Z,22.62
2022-08-17T10:36:46.217Z,22.72
2022-08-17T10:39:52.106Z,22.90
2022-08-17T10:42:47.039Z,23.02
2022-08-17T10:45:26.070Z,23.13
2022-08-17T10:48:04.816Z,23.31
2022-08-17T10:51:02.059Z,23.53
2022-08-17T10:53:31.137Z,23.69
2022-08-17T10:56:17.400Z,23.85
2022-08-17T10:59:01.133Z,23.84
2022-08-17T11:01:43.414Z,23.79
2022-08-17T11:04:18.676Z,23.79
2022-08-17T11:07:02.043Z,23.85
2022-08-17T11:10:01.054Z,23.89
2022-08-17T11:12:44.215Z,23.87
2022-08-17T11:15:41.423Z,23.91
2022-08-17T11:18:39.860Z,23.99
2022-08-17T11:21:23.058Z,24.04
2022-08-17T11:24:11.631Z,24.07
2022-08-17T11:26:42.153Z,24.05
2022-08-17T11:29:31.050Z,24.03
2022-08-17T11:31:59.475Z,24.00
2022-08-17T11:34:29.957Z,23.99
2022-08-17T11:37:20.711Z,24.02
2022-08-17T11:40:05.779Z,23.99
2022-08-17T11:43:09.917Z,23.94
2022-08-17T11:45:58.125Z,23.91
2022-08-17T11:49:05.000Z,23.83
2022-08-17T11:51:57.023Z,23.77
2022-08-17T11:54:48.177Z,23.72
2022-08-17T11:57:29.708Z,23.67
2022-08-17T12:00:00.713Z,23.63
2022-08-17T12:02:31.668Z,23.63
2022-08-17T12:05:12.313Z,23.63
2022-08-17T12:08:15.921Z,23.62
2022-08-17T12:10:55.996Z,23.62
2022-08-17T12:13:30.574Z,23.63
2022-08-17T12:16:05.492Z,23.62
2022-08-17T12:18:37.327Z,23.56
2022-08-17T12:21:08.499Z,23.53
2022-08-17T12:23:56.776Z,23.51
2022-08-17T12:26:30.184Z,23.50
2022-08-17T12:29:38.432Z,23.39
2022-08-17T12:32:06.940Z,23.29
2022-08-17T12:34:38.162Z,23.24
2022-08-17T12:37:08.097Z,23.20
2022-08-17T12:39:36.684Z,23.17
2022-08-17T12:42:04.616Z,23.08
2022-08-17T12:44:46.141Z,23.01
2022-08-17T12:47:22.690Z,22.95
2022-08-17T12:49:52.593Z,22.92
2022-08-17T12:52:26.768Z,22.93
2022-08-17T12:54:59.599Z,22.90
2022-08-17T12:57:38.282Z,22.83
2022-08-17T13:00:24.733Z,22.82
2022-08-17T13:03:03.261Z,22.78
2022-08-17T13:05:31.344Z,22.77
2022-08-17T13:07:59.810Z,22.76
2022-08-17T13:10:32.872Z,22.74
2022-08-17T13:13:05.196Z,22.74
2022-08-17T13:15:50.776Z,22.72
2022-08-17T13:18:47.239Z,22.70
2022-08-17T13:21:26.578Z,22.68
2022-08-17T13:24:02.732Z,22.70
2022-08-17T13:26:31.228Z,22.63
2022-08-17T13:28:58.590Z,22.62
2022-08-17T13:31:32.912Z,22.60
2022-08-17T13:34:30.624Z,22.52
2022-08-17T13:37:26.277Z,22.43
2022-08-17T13:39:55.410Z,22.43
2022-08-17T13:42:52.886Z,22.48
2022-08-17T13:45:36.514Z,22.52
2022-08-17T13:48:18.782Z,22.54
2022-08-17T13:50:54.157Z,22.53
2022-08-17T13:53:25.485Z,22.53
2022-08-17T13:55:55.388Z,22.56
2022-08-17T13:58:34.181Z,22.61
2022-08-17T14:01:28.614Z,22.64
2022-08-17T14:03:56.187Z,22.64
2022-08-17T14:06:52.478Z,22.64
2022-08-17T14:09:11.290Z,22.69
2022-08-17T14:11:38.261Z,22.70
2022-08-17T14:14:04.897Z,22.72
2022-08-17T14:16:31.335Z,22.71
2022-08-17T14:18:57.800Z,22.75
2022-08-17T14:21:24.282Z,22.73
2022-08-17T14:23:54.810Z,22.74
2022-08-17T14:26:21.563Z,22.71
2022-08-17T14:28:56.600Z,22.71
2022-08-17T14:31:23.650Z,22.72
2022-08-17T14:33:50.039Z,22.75
2022-08-17T14:36:16.430Z,22.77
2022-08-17T14:38:44.938Z,22.76
2022-08-17T14:41:11.582Z,22.81
2022-08-17T14:43:39.581Z,22.87
2022-08-17T14:46:06.111Z,22.90
2022-08-17T14:48:38.476Z,22.93
2022-08-17T14:51:05.293Z,22.97
2022-08-17T14:53:31.733Z,23.01
2022-08-17T14:55:58.111Z,23.03
2022-08-17T14:58:24.639Z,23.10
2022-08-17T15:00:51.308Z,23.15
2022-08-17T15:03:18.719Z,23.21
2022-08-17T15:05:46.746Z,23.25
2022-08-17T15:08:13.296Z,23.23
2022-08-17T15:10:39.728Z,23.19
2022-08-17T15:13:20.438Z,23.20
2022-08-17T15:15:47.983Z,23.25
2022-08-17T15:18:14.823Z,23.28
2022-08-17T15:20:42.851Z,23.34
2022-08-17T15:23:13.091Z,23.44
2022-08-17T15:25:39.585Z,23.46
2022-08-17T15:28:07.306Z,23.50
2022-08-17T15:30:34.722Z,23.56
2022-08-17T15:33:02.025Z,23.59
2022-08-17T15:35:32.882Z,23.63
2022-08-17T15:38:10.690Z,23.72
2022-08-17T15:40:43.008Z,23.76
2022-08-17T15:43:16.917Z,23.80
2022-08-17T15:45:44.553Z,23.78
2022-08-17T15:48:40.541Z,23.75
2022-08-17T15:51:15.896Z,23.77
2022-08-17T15:53:45.301Z,23.77
2022-08-17T15:56:14.074Z,23.80
2022-08-17T15:58:42.382Z,23.77
2022-08-17T16:01:16.772Z,23.69
2022-08-17T16:04:04.358Z,23.68
2022-08-17T16:06:33.372Z,23.69
2022-08-17T16:09:00.348Z,23.72
2022-08-17T16:11:26.796Z,23.75
2022-08-17T16:13:55.063Z,23.78
2022-08-17T16:16:23.558Z,23.82
2022-08-17T16:18:53.584Z,23.84
2022-08-17T16:21:43.096Z,23.84
2022-08-17T16:24:13.388Z,23.81
2022-08-17T16:26:40.609Z,23.79
2022-08-17T16:29:08.221Z,23.80
2022-08-17T16:31:40.079Z,23.80
2022-08-17T16:34:17.945Z,23.78
2022-08-17T16:36:55.636Z,23.76
2022-08-17T16:39:28.683Z,23.77
2022-08-17T16:41:56.232Z,23.77
2022-08-17T16:44:28.831Z,23.77
2022-08-17T16:46:55.901Z,23.74
2022-08-17T16:49:34.453Z,23.68
2022-08-17T16:52:03.921Z,23.61
2022-08-17T16:54:30.396Z,23.58
2022-08-17T16:56:56.875Z,23.58
2022-08-17T16:59:31.029Z,23.57
2022-08-17T17:02:11.237Z,23.58
2022-08-17T17:04:44.031Z,23.56
2022-08-17T17:07:38.708Z,23.57
2022-08-17T17:10:09.803Z,23.56
2022-08-17T17:13:03.840Z,23.58
2022-08-17T17:15:31.418Z,23.58
2022-08-17T17:18:06.179Z,23.61
2022-08-17T17:20:47.548Z,23.63
2022-08-17T17:23:37.707Z,23.63
2022-08-17T17:26:36.775Z,23.58
2022-08-17T17:29:20.096Z,23.53
2022-08-17T17:32:17.290Z,23.49
2022-08-17T17:34:50.541Z,23.41
2022-08-17T17:37:23.208Z,23.37
2022-08-17T17:39:57.540Z,23.34
2022-08-17T17:42:28.838Z,23.34
2022-08-17T17:45:10.690Z,23.35
2022-08-17T17:47:37.363Z,23.35
2022-08-17T17:50:07.312Z,23.36
2022-08-17T17:53:03.962Z,23.32
2022-08-17T17:55:55.209Z,23.30
2022-08-17T17:58:51.680Z,23.26
2022-08-17T18:01:44.714Z,23.17
2022-08-17T18:04:23.685Z,23.11
2022-08-17T18:07:12.181Z,23.03
2022-08-17T18:10:35.796Z,23.03
2022-08-17T18:13:27.313Z,22.97
2022-08-17T18:15:55.882Z,22.91
2022-08-17T18:18:39.527Z,22.92
2022-08-17T18:21:18.740Z,22.92
2022-08-17T18:23:53.020Z,22.92
2022-08-17T18:26:49.449Z,22.95
2022-08-17T18:29:24.739Z,22.93
2022-08-17T18:32:18.554Z,22.96
2022-08-17T18:34:48.536Z,22.96
2022-08-17T18:37:31.628Z,22.96
2022-08-17T18:39:58.057Z,22.97
2022-08-17T18:42:27.456Z,22.94
2022-08-17T18:44:55.452Z,22.94
2022-08-17T18:47:28.565Z,22.91
2022-08-17T18:49:58.262Z,22.90
2022-08-17T18:52:32.956Z,22.89
2022-08-17T18:55:09.125Z,22.87
2022-08-17T18:57:39.559Z,22.82
2022-08-17T19:00:17.590Z,22.80
2022-08-17T19:02:52.101Z,22.81
2022-08-17T19:05:40.259Z,22.83
2022-08-17T19:08:28.505Z,22.81
2022-08-17T19:11:02.502Z,22.77
2022-08-17T19:13:28.970Z,22.71
2022-08-17T19:16:12.259Z,22.69
2022-08-17T19:18:54.230Z,22.67
2022-08-17T19:21:44.981Z,22.67
2022-08-17T19:24:19.788Z,22.64
2022-08-17T19:27:13.485Z,22.65
2022-08-17T19:29:56.617Z,22.64
2022-08-17T19:32:27.001Z,22.60
2022-08-17T19:34:54.964Z,22.59
2022-08-17T19:37:21.530Z,22.55
2022-08-17T19:40:24.447Z,22.52
2022-08-17T19:43:13.235Z,22.48
2022-08-17T19:45:58.255Z,22.47
2022-08-17T19:48:56.189Z,22.48
2022-08-17T19:51:34.459Z,22.45
2022-08-17T19:54:15.012Z,22.42
2022-08-17T19:56:49.480Z,22.41
2022-08-17T19:59:21.833Z,22.39
2022-08-17T20:02:00.958Z,22.39
2022-08-17T20:04:32.511Z,22.37
2022-08-17T20:07:54.334Z,22.37
2022-08-17T20:10:29.748Z,22.35
2022-08-17T20:13:07.519Z,22.35
2022-08-17T20:15:38.154Z,22.32
2022-08-17T20:18:13.592Z,22.30
2022-08-17T20:21:05.395Z,22.28
2022-08-17T20:23:37.776Z,22.28
2022-08-17T20:26:17.117Z,22.24
2022-08-17T20:29:08.651Z,22.24
2022-08-17T20:32:06.026Z,22.24
2022-08-17T20:34:39.515Z,22.22
2022-08-17T20:37:15.105Z,22.20
2022-08-17T20:40:08.007Z,22.18
2022-08-17T20:42:36.330Z,22.10
2022-08-17T20:45:26.192Z,22.06
2022-08-17T20:48:22.184Z,21.99
2022-08-17T20:50:51.356Z,21.96
2022-08-17T20:53:53.288Z,21.94
2022-08-17T20:56:39.835Z,21.94
2022-08-17T20:59:30.630Z,21.86
2022-08-17T21:02:12.399Z,21.87
2022-08-17T21:05:00.103Z,21.85
2022-08-17T21:07:42.747Z,21.74
2022-08-17T21:10:13.814Z,21.70
2022-08-17T21:12:50.032Z,21.66
2022-08-17T21:15:43.474Z,21.63
2022-08-17T21:18:28.362Z,21.57
2022-08-17T21:21:15.463Z,21.58
2022-08-17T21:23:59.851Z,21.57
2022-08-17T21:27:04.453Z,21.58
2022-08-17T21:29:33.982Z,21.57
2022-08-17T21:32:06.549Z,21.59
2022-08-17T21:34:43.958Z,21.60
2022-08-17T21:37:22.392Z,21.60
2022-08-17T21:39:54.659Z,21.59
2022-08-17T21:42:29.520Z,21.58
2022-08-17T21:45:30.545Z,21.59
2022-08-17T21:48:21.533Z,21.61
2022-08-17T21:51:10.441Z,21.63
2022-08-17T21:53:44.630Z,21.61
2022-08-17T21:56:19.862Z,21.60
2022-08-17T21:58:54.450Z,21.56
2022-08-17T22:01:25.832Z,21.61
2022-08-17T22:04:11.866Z,21.60
2022-08-17T22:06:52.389Z,21.61
2022-08-17T22:09:35.132Z,21.60
2022-08-17T22:12:13.481Z,21.57
2022-08-17T22:14:53.425Z,21.52
2022-08-17T22:17:34.295Z,21.48
2022-08-17T22:20:11.997Z,21.44
2022-08-17T22:23:17.011Z,21.41
2022-08-17T22:26:06.072Z,21.39
2022-08-17T22:28:45.465Z,21.37
2022-08-17T22:31:15.461Z,21.34
2022-08-17T22:33:44.468Z,21.33
2022-08-17T22:36:25.002Z,21.34
2022-08-17T22:39:10.652Z,21.31
2022-08-17T22:41:37.063Z,21.31
2022-08-17T22:44:27.822Z,21.30
2022-08-17T22:47:13.305Z,21.26
2022-08-17T22:49:53.153Z,21.24
2022-08-17T22:52:32.713Z,21.20
2022-08-17T22:55:33.297Z,21.19
2022-08-17T22:58:19.160Z,21.19
2022-08-17T23:00:49.070Z,21.21
2022-08-17T23:03:25.207Z,21.23
2022-08-17T23:06:08.008Z,21.24
2022-08-17T23:08:43.501Z,21.22
2022-08-17T23:11:09.971Z,21.23
2022-08-17T23:13:38.576Z,21.26
2022-08-17T23:16:06.842Z,21.30
2022-08-17T23:18:33.516Z,21.34
2022-08-17T23:21:00.075Z,21.37
2022-08-17T23:23:26.536Z,21.34
2022-08-17T23:25:54.339Z,21.37
2022-08-17T23:28:21.405Z,21.39
2022-08-17T23:30:48.455Z,21.41
2022-08-17T23:33:30.074Z,21.43
2022-08-17T23:35:58.812Z,21.45
2022-08-17T23:38:27.064Z,21.46
2022-08-17T23:40:54.535Z,21.43
2022-08-17T23:43:23.894Z,21.41
2022-08-17T23:45:53.881Z,21.40
2022-08-17T23:48:36.314Z,21.41
2022-08-17T23:51:09.820Z,21.39
2022-08-17T23:53:40.186Z,21.38
2022-08-17T23:56:10.410Z,21.39
2022-08-17T23:58:38.956Z,21.38
